sensor_id;sensor_type;location;lat;lon;timestamp;pressure;altitude;pressure_sealevel;temperature;humidity
23677;BME280;31493;49.058;12.190;2023-04-26T00:02:25;95905.50;;;5.12;99.18
23677;BME280;31493;49.058;12.190;2023-04-26T00:04:53;95915.38;;;5.20;98.64
23677;BME280;31493;49.058;12.190;2023-04-26T00:07:21;95911.94;;;5.03;99.08
23677;BME280;31493;49.058;12.190;2023-04-26T00:09:49;95914.13;;;4.75;98.53
23677;BME280;31493;49.058;12.190;2023-04-26T00:12:17;95917.91;;;4.68;99.19
23677;BME280;31493;49.058;12.190;2023-04-26T00:14:44;95926.09;;;4.57;98.73
23677;BME280;31493;49.058;12.190;2023-04-26T00:17:11;95928.44;;;4.62;98.30
23677;BME280;31493;49.058;12.190;2023-04-26T00:19:38;95924.81;;;4.66;98.76
23677;BME280;31493;49.058;12.190;2023-04-26T00:22:05;95920.50;;;4.66;98.61
23677;BME280;31493;49.058;12.190;2023-04-26T00:24:33;95911.59;;;4.92;98.28
23677;BME280;31493;49.058;12.190;2023-04-26T00:27:02;95919.19;;;4.76;98.17
23677;BME280;31493;49.058;12.190;2023-04-26T00:29:33;95922.50;;;4.78;99.07
23677;BME280;31493;49.058;12.190;2023-04-26T00:32:01;95928.00;;;4.71;99.79
23677;BME280;31493;49.058;12.190;2023-04-26T00:34:31;95929.91;;;4.84;98.77
23677;BME280;31493;49.058;12.190;2023-04-26T00:36:58;95934.22;;;4.84;98.68
23677;BME280;31493;49.058;12.190;2023-04-26T00:39:25;95922.50;;;4.78;98.54
23677;BME280;31493;49.058;12.190;2023-04-26T00:41:52;95929.78;;;4.88;98.89
23677;BME280;31493;49.058;12.190;2023-04-26T00:44:20;95930.91;;;4.82;100.00
23677;BME280;31493;49.058;12.190;2023-04-26T00:46:48;95925.75;;;4.46;100.00
23677;BME280;31493;49.058;12.190;2023-04-26T00:49:18;95919.25;;;4.39;100.00
23677;BME280;31493;49.058;12.190;2023-04-26T00:51:47;95926.72;;;4.43;100.00
23677;BME280;31493;49.058;12.190;2023-04-26T00:54:14;95920.63;;;4.46;100.00
23677;BME280;31493;49.058;12.190;2023-04-26T00:56:41;95914.94;;;4.20;100.00
23677;BME280;31493;49.058;12.190;2023-04-26T00:59:09;95924.09;;;4.07;100.00
23677;BME280;31493;49.058;12.190;2023-04-26T01:01:37;95923.53;;;4.00;100.00
23677;BME280;31493;49.058;12.190;2023-04-26T01:04:05;95923.94;;;4.10;100.00
23677;BME280;31493;49.058;12.190;2023-04-26T01:06:33;95924.00;;;3.90;100.00
23677;BME280;31493;49.058;12.190;2023-04-26T01:09:04;95929.44;;;4.21;100.00
23677;BME280;31493;49.058;12.190;2023-04-26T01:11:34;95928.88;;;4.15;100.00
23677;BME280;31493;49.058;12.190;2023-04-26T01:14:02;95922.97;;;3.94;100.00
23677;BME280;31493;49.058;12.190;2023-04-26T01:16:30;95912.47;;;4.00;100.00
23677;BME280;31493;49.058;12.190;2023-04-26T01:19:06;95918.19;;;4.05;100.00
23677;BME280;31493;49.058;12.190;2023-04-26T01:21:34;95919.91;;;4.04;100.00
23677;BME280;31493;49.058;12.190;2023-04-26T01:24:02;95931.00;;;4.05;100.00
23677;BME280;31493;49.058;12.190;2023-04-26T01:26:29;95931.25;;;3.99;100.00
23677;BME280;31493;49.058;12.190;2023-04-26T01:28:56;95923.09;;;3.91;100.00
23677;BME280;31493;49.058;12.190;2023-04-26T01:31:24;95923.25;;;4.07;100.00
23677;BME280;31493;49.058;12.190;2023-04-26T01:33:51;95917.16;;;4.09;100.00
23677;BME280;31493;49.058;12.190;2023-04-26T01:36:18;95920.47;;;4.11;100.00
23677;BME280;31493;49.058;12.190;2023-04-26T01:38:45;95910.50;;;4.05;100.00
23677;BME280;31493;49.058;12.190;2023-04-26T01:41:14;95937.38;;;3.96;100.00
23677;BME280;31493;49.058;12.190;2023-04-26T01:43:41;95918.72;;;3.93;100.00
23677;BME280;31493;49.058;12.190;2023-04-26T01:46:08;95920.72;;;4.07;100.00
23677;BME280;31493;49.058;12.190;2023-04-26T01:48:35;95922.22;;;4.11;100.00
23677;BME280;31493;49.058;12.190;2023-04-26T01:51:03;95928.53;;;4.22;100.00
23677;BME280;31493;49.058;12.190;2023-04-26T01:53:30;95927.06;;;4.17;100.00
23677;BME280;31493;49.058;12.190;2023-04-26T01:55:59;95935.53;;;4.19;100.00
23677;BME280;31493;49.058;12.190;2023-04-26T01:58:28;95936.38;;;3.99;100.00
23677;BME280;31493;49.058;12.190;2023-04-26T02:00:55;95932.66;;;3.87;100.00
23677;BME280;31493;49.058;12.190;2023-04-26T02:03:22;95940.63;;;3.81;100.00
23677;BME280;31493;49.058;12.190;2023-04-26T02:05:49;95939.63;;;3.84;100.00
23677;BME280;31493;49.058;12.190;2023-04-26T02:08:16;95931.16;;;3.63;100.00
23677;BME280;31493;49.058;12.190;2023-04-26T02:10:43;95929.22;;;3.68;100.00
23677;BME280;31493;49.058;12.190;2023-04-26T02:13:10;95946.13;;;3.72;100.00
23677;BME280;31493;49.058;12.190;2023-04-26T02:15:38;95937.97;;;3.83;100.00
23677;BME280;31493;49.058;12.190;2023-04-26T02:18:05;95940.94;;;3.92;100.00
23677;BME280;31493;49.058;12.190;2023-04-26T02:20:34;95941.56;;;3.78;100.00
23677;BME280;31493;49.058;12.190;2023-04-26T02:23:02;95938.66;;;3.86;100.00
23677;BME280;31493;49.058;12.190;2023-04-26T02:25:29;95943.84;;;3.85;100.00
23677;BME280;31493;49.058;12.190;2023-04-26T02:27:56;95939.00;;;3.78;100.00
23677;BME280;31493;49.058;12.190;2023-04-26T02:30:23;95946.50;;;3.83;100.00
23677;BME280;31493;49.058;12.190;2023-04-26T02:32:53;95939.81;;;3.79;100.00
23677;BME280;31493;49.058;12.190;2023-04-26T02:35:21;95937.72;;;3.89;100.00
23677;BME280;31493;49.058;12.190;2023-04-26T02:37:48;95933.50;;;3.88;100.00
23677;BME280;31493;49.058;12.190;2023-04-26T02:40:17;95943.84;;;3.85;100.00
23677;BME280;31493;49.058;12.190;2023-04-26T02:42:44;95936.72;;;3.52;100.00
23677;BME280;31493;49.058;12.190;2023-04-26T02:45:12;95940.63;;;3.61;100.00
23677;BME280;31493;49.058;12.190;2023-04-26T02:47:39;95939.06;;;3.77;100.00
23677;BME280;31493;49.058;12.190;2023-04-26T02:50:08;95937.22;;;3.60;100.00
23677;BME280;31493;49.058;12.190;2023-04-26T02:52:36;95941.69;;;3.55;100.00
23677;BME280;31493;49.058;12.190;2023-04-26T02:55:04;95939.03;;;3.58;100.00
23677;BME280;31493;49.058;12.190;2023-04-26T02:57:31;95943.91;;;3.44;100.00
23677;BME280;31493;49.058;12.190;2023-04-26T02:59:58;95944.53;;;3.29;100.00
23677;BME280;31493;49.058;12.190;2023-04-26T03:02:26;95938.72;;;3.45;100.00
23677;BME280;31493;49.058;12.190;2023-04-26T03:04:53;95939.41;;;3.49;100.00
23677;BME280;31493;49.058;12.190;2023-04-26T03:07:22;95942.19;;;3.44;100.00
23677;BME280;31493;49.058;12.190;2023-04-26T03:09:49;95948.06;;;3.04;100.00
23677;BME280;31493;49.058;12.190;2023-04-26T03:12:16;95946.44;;;3.23;100.00
23677;BME280;31493;49.058;12.190;2023-04-26T03:14:43;95945.81;;;3.39;100.00
23677;BME280;31493;49.058;12.190;2023-04-26T03:17:10;95943.13;;;3.42;100.00
23677;BME280;31493;49.058;12.190;2023-04-26T03:19:37;95949.66;;;3.29;100.00
23677;BME280;31493;49.058;12.190;2023-04-26T03:22:04;95945.81;;;3.39;100.00
23677;BME280;31493;49.058;12.190;2023-04-26T03:24:33;95950.91;;;3.18;100.00
23677;BME280;31493;49.058;12.190;2023-04-26T03:27:00;95951.44;;;3.27;100.00
23677;BME280;31493;49.058;12.190;2023-04-26T03:29:27;95949.25;;;3.17;100.00
23677;BME280;31493;49.058;12.190;2023-04-26T03:31:54;95952.09;;;3.32;100.00
23677;BME280;31493;49.058;12.190;2023-04-26T03:34:21;95950.94;;;3.39;100.00
23677;BME280;31493;49.058;12.190;2023-04-26T03:36:48;95961.56;;;3.50;100.00
23677;BME280;31493;49.058;12.190;2023-04-26T03:39:16;95949.44;;;3.54;100.00
23677;BME280;31493;49.058;12.190;2023-04-26T03:41:44;95951.50;;;3.45;100.00
23677;BME280;31493;49.058;12.190;2023-04-26T03:44:11;95958.53;;;3.40;100.00
23677;BME280;31493;49.058;12.190;2023-04-26T03:46:38;95958.06;;;3.10;100.00
23677;BME280;31493;49.058;12.190;2023-04-26T03:49:06;95965.75;;;3.31;100.00
23677;BME280;31493;49.058;12.190;2023-04-26T03:51:33;95962.09;;;3.16;100.00
23677;BME280;31493;49.058;12.190;2023-04-26T03:54:00;95968.88;;;3.17;100.00
23677;BME280;31493;49.058;12.190;2023-04-26T03:56:27;95967.72;;;3.04;100.00
23677;BME280;31493;49.058;12.190;2023-04-26T03:58:55;95958.78;;;3.34;100.00
23677;BME280;31493;49.058;12.190;2023-04-26T04:01:22;95971.94;;;3.05;100.00
23677;BME280;31493;49.058;12.190;2023-04-26T04:03:49;95974.66;;;3.00;100.00
23677;BME280;31493;49.058;12.190;2023-04-26T04:06:16;95965.22;;;3.02;100.00
23677;BME280;31493;49.058;12.190;2023-04-26T04:08:43;95977.34;;;2.97;100.00
23677;BME280;31493;49.058;12.190;2023-04-26T04:11:10;95975.97;;;2.88;100.00
23677;BME280;31493;49.058;12.190;2023-04-26T04:13:37;95979.97;;;2.74;100.00
23677;BME280;31493;49.058;12.190;2023-04-26T04:16:06;95978.91;;;2.79;100.00
23677;BME280;31493;49.058;12.190;2023-04-26T04:18:34;95988.88;;;2.63;100.00
23677;BME280;31493;49.058;12.190;2023-04-26T04:21:02;95975.75;;;2.73;100.00
23677;BME280;31493;49.058;12.190;2023-04-26T04:23:29;95984.69;;;2.84;100.00
23677;BME280;31493;49.058;12.190;2023-04-26T04:25:56;95980.00;;;2.94;100.00
23677;BME280;31493;49.058;12.190;2023-04-26T04:28:23;95974.91;;;2.72;100.00
23677;BME280;31493;49.058;12.190;2023-04-26T04:30:50;95983.19;;;2.79;100.00
23677;BME280;31493;49.058;12.190;2023-04-26T04:33:19;95975.81;;;2.71;100.00
23677;BME280;31493;49.058;12.190;2023-04-26T04:35:46;95984.78;;;2.81;100.00
23677;BME280;31493;49.058;12.190;2023-04-26T04:38:13;95991.88;;;2.96;100.00
23677;BME280;31493;49.058;12.190;2023-04-26T04:40:40;95996.19;;;2.94;100.00
23677;BME280;31493;49.058;12.190;2023-04-26T04:43:08;96006.00;;;3.05;100.00
23677;BME280;31493;49.058;12.190;2023-04-26T04:45:37;95995.91;;;3.02;100.00
23677;BME280;31493;49.058;12.190;2023-04-26T04:48:05;96000.19;;;3.02;100.00
23677;BME280;31493;49.058;12.190;2023-04-26T04:50:33;96001.94;;;3.01;100.00
23677;BME280;31493;49.058;12.190;2023-04-26T04:53:00;96006.66;;;3.10;100.00
23677;BME280;31493;49.058;12.190;2023-04-26T04:55:28;96011.50;;;2.96;100.00
23677;BME280;31493;49.058;12.190;2023-04-26T04:57:55;96013.84;;;3.01;100.00
23677;BME280;31493;49.058;12.190;2023-04-26T05:00:22;96008.81;;;3.21;100.00
23677;BME280;31493;49.058;12.190;2023-04-26T05:02:49;96010.72;;;3.36;100.00
23677;BME280;31493;49.058;12.190;2023-04-26T05:05:16;96012.34;;;3.39;100.00
23677;BME280;31493;49.058;12.190;2023-04-26T05:07:45;96007.66;;;3.28;100.00
23677;BME280;31493;49.058;12.190;2023-04-26T05:10:12;96007.16;;;3.61;100.00
23677;BME280;31493;49.058;12.190;2023-04-26T05:12:39;96015.16;;;3.33;100.00
23677;BME280;31493;49.058;12.190;2023-04-26T05:15:06;96003.91;;;3.98;100.00
23677;BME280;31493;49.058;12.190;2023-04-26T05:17:34;96020.22;;;3.34;100.00
23677;BME280;31493;49.058;12.190;2023-04-26T05:20:01;96009.84;;;3.37;100.00
23677;BME280;31493;49.058;12.190;2023-04-26T05:22:32;96017.97;;;3.47;100.00
23677;BME280;31493;49.058;12.190;2023-04-26T05:25:03;96020.44;;;3.70;100.00
23677;BME280;31493;49.058;12.190;2023-04-26T05:27:30;96020.63;;;3.66;100.00
23677;BME280;31493;49.058;12.190;2023-04-26T05:29:59;96016.97;;;3.92;100.00
23677;BME280;31493;49.058;12.190;2023-04-26T05:32:26;96027.22;;;3.71;100.00
23677;BME280;31493;49.058;12.190;2023-04-26T05:34:53;96022.84;;;3.53;100.00
23677;BME280;31493;49.058;12.190;2023-04-26T05:37:20;96021.94;;;3.54;100.00
23677;BME280;31493;49.058;12.190;2023-04-26T05:39:47;96024.59;;;3.53;100.00
23677;BME280;31493;49.058;12.190;2023-04-26T05:42:16;96027.28;;;3.90;100.00
23677;BME280;31493;49.058;12.190;2023-04-26T05:44:43;96033.34;;;4.08;100.00
23677;BME280;31493;49.058;12.190;2023-04-26T05:47:10;96033.22;;;3.91;100.00
23677;BME280;31493;49.058;12.190;2023-04-26T05:49:37;96035.91;;;4.08;100.00
23677;BME280;31493;49.058;12.190;2023-04-26T05:52:04;96026.03;;;3.99;99.11
23677;BME280;31493;49.058;12.190;2023-04-26T05:54:31;96032.69;;;4.23;99.31
23677;BME280;31493;49.058;12.190;2023-04-26T05:56:58;96047.50;;;4.17;100.00
23677;BME280;31493;49.058;12.190;2023-04-26T05:59:26;96039.97;;;4.32;99.88
23677;BME280;31493;49.058;12.190;2023-04-26T06:01:57;96048.13;;;4.42;100.00
23677;BME280;31493;49.058;12.190;2023-04-26T06:04:24;96036.16;;;4.41;99.57
23677;BME280;31493;49.058;12.190;2023-04-26T06:06:51;96040.63;;;4.38;97.93
23677;BME280;31493;49.058;12.190;2023-04-26T06:09:18;96038.06;;;4.56;98.76
23677;BME280;31493;49.058;12.190;2023-04-26T06:11:45;96052.09;;;4.29;95.24
23677;BME280;31493;49.058;12.190;2023-04-26T06:14:12;96048.22;;;4.39;97.54
23677;BME280;31493;49.058;12.190;2023-04-26T06:16:40;96043.44;;;4.31;93.92
23677;BME280;31493;49.058;12.190;2023-04-26T06:19:07;96044.66;;;4.43;96.04
23677;BME280;31493;49.058;12.190;2023-04-26T06:21:34;96049.34;;;4.34;94.46
23677;BME280;31493;49.058;12.190;2023-04-26T06:24:02;96057.38;;;4.45;91.85
23677;BME280;31493;49.058;12.190;2023-04-26T06:26:29;96053.44;;;4.56;91.58
23677;BME280;31493;49.058;12.190;2023-04-26T06:28:56;96056.41;;;4.66;89.61
23677;BME280;31493;49.058;12.190;2023-04-26T06:31:24;96057.06;;;4.71;90.85
23677;BME280;31493;49.058;12.190;2023-04-26T06:33:52;96059.34;;;4.77;90.36
23677;BME280;31493;49.058;12.190;2023-04-26T06:36:19;96052.72;;;4.73;90.10
23677;BME280;31493;49.058;12.190;2023-04-26T06:38:47;96051.09;;;4.71;91.81
23677;BME280;31493;49.058;12.190;2023-04-26T06:41:14;96061.78;;;4.62;88.90
23677;BME280;31493;49.058;12.190;2023-04-26T06:43:41;96062.41;;;4.67;88.19
23677;BME280;31493;49.058;12.190;2023-04-26T06:46:08;96067.31;;;4.90;85.84
23677;BME280;31493;49.058;12.190;2023-04-26T06:48:35;96066.41;;;5.29;88.32
23677;BME280;31493;49.058;12.190;2023-04-26T06:51:07;96071.88;;;5.02;90.18
23677;BME280;31493;49.058;12.190;2023-04-26T06:53:35;96073.97;;;5.13;91.34
23677;BME280;31493;49.058;12.190;2023-04-26T06:56:03;96068.22;;;5.08;91.30
23677;BME280;31493;49.058;12.190;2023-04-26T06:58:30;96074.50;;;5.20;91.14
23677;BME280;31493;49.058;12.190;2023-04-26T07:00:57;96075.38;;;5.37;87.20
23677;BME280;31493;49.058;12.190;2023-04-26T07:03:24;96067.88;;;5.16;90.52
23677;BME280;31493;49.058;12.190;2023-04-26T07:05:53;96080.91;;;5.11;91.29
23677;BME280;31493;49.058;12.190;2023-04-26T07:08:22;96070.06;;;5.23;91.35
23677;BME280;31493;49.058;12.190;2023-04-26T07:10:49;96072.28;;;5.31;90.41
23677;BME280;31493;49.058;12.190;2023-04-26T07:13:16;96079.44;;;5.24;87.23
23677;BME280;31493;49.058;12.190;2023-04-26T07:15:43;96084.09;;;5.52;91.27
23677;BME280;31493;49.058;12.190;2023-04-26T07:18:10;96083.75;;;5.60;89.94
23677;BME280;31493;49.058;12.190;2023-04-26T07:20:37;96082.09;;;5.40;83.28
23677;BME280;31493;49.058;12.190;2023-04-26T07:23:04;96092.88;;;5.65;85.00
23677;BME280;31493;49.058;12.190;2023-04-26T07:25:33;96084.66;;;5.59;80.61
23677;BME280;31493;49.058;12.190;2023-04-26T07:28:00;96084.47;;;5.98;84.92
23677;BME280;31493;49.058;12.190;2023-04-26T07:30:27;96074.28;;;5.97;82.30
23677;BME280;31493;49.058;12.190;2023-04-26T07:32:57;96077.50;;;6.00;80.55
23677;BME280;31493;49.058;12.190;2023-04-26T07:35:24;96078.25;;;6.19;83.57
23677;BME280;31493;49.058;12.190;2023-04-26T07:37:51;96070.75;;;5.80;77.15
23677;BME280;31493;49.058;12.190;2023-04-26T07:40:18;96085.97;;;6.19;76.40
23677;BME280;31493;49.058;12.190;2023-04-26T07:42:48;96082.03;;;5.95;78.88
23677;BME280;31493;49.058;12.190;2023-04-26T07:45:15;96073.50;;;6.12;77.60
23677;BME280;31493;49.058;12.190;2023-04-26T07:47:42;96077.56;;;6.33;74.02
23677;BME280;31493;49.058;12.190;2023-04-26T07:50:10;96078.44;;;6.50;75.36
23677;BME280;31493;49.058;12.190;2023-04-26T07:52:37;96082.94;;;6.29;71.60
23677;BME280;31493;49.058;12.190;2023-04-26T07:55:05;96083.84;;;6.45;74.86
23677;BME280;31493;49.058;12.190;2023-04-26T07:57:32;96072.59;;;6.63;71.85
23677;BME280;31493;49.058;12.190;2023-04-26T08:00:00;96066.25;;;7.02;72.45
23677;BME280;31493;49.058;12.190;2023-04-26T08:02:28;96068.94;;;6.67;71.11
23677;BME280;31493;49.058;12.190;2023-04-26T08:04:55;96065.91;;;7.08;71.78
23677;BME280;31493;49.058;12.190;2023-04-26T08:07:22;96070.81;;;6.97;70.78
23677;BME280;31493;49.058;12.190;2023-04-26T08:09:49;96070.72;;;7.14;71.78
23677;BME280;31493;49.058;12.190;2023-04-26T08:12:16;96082.09;;;6.45;62.38
23677;BME280;31493;49.058;12.190;2023-04-26T08:14:43;96074.31;;;6.63;64.52
23677;BME280;31493;49.058;12.190;2023-04-26T08:17:12;96077.53;;;6.51;65.83
23677;BME280;31493;49.058;12.190;2023-04-26T08:19:39;96078.03;;;6.24;68.58
23677;BME280;31493;49.058;12.190;2023-04-26T08:22:06;96074.41;;;6.28;69.71
23677;BME280;31493;49.058;12.190;2023-04-26T08:24:33;96088.63;;;6.84;72.94
23677;BME280;31493;49.058;12.190;2023-04-26T08:27:00;96069.63;;;6.71;68.29
23677;BME280;31493;49.058;12.190;2023-04-26T08:29:28;96069.97;;;6.96;67.98
23677;BME280;31493;49.058;12.190;2023-04-26T08:31:55;96068.56;;;6.91;65.45
23677;BME280;31493;49.058;12.190;2023-04-26T08:34:24;96071.88;;;7.09;65.56
23677;BME280;31493;49.058;12.190;2023-04-26T08:36:53;96074.97;;;7.31;64.11
23677;BME280;31493;49.058;12.190;2023-04-26T08:39:20;96074.69;;;7.36;69.76
23677;BME280;31493;49.058;12.190;2023-04-26T08:41:49;96075.44;;;7.22;69.98
23677;BME280;31493;49.058;12.190;2023-04-26T08:44:21;96085.88;;;6.87;71.02
23677;BME280;31493;49.058;12.190;2023-04-26T08:46:56;96081.88;;;6.66;73.11
23677;BME280;31493;49.058;12.190;2023-04-26T08:49:33;96089.38;;;6.70;70.34
23677;BME280;31493;49.058;12.190;2023-04-26T08:52:03;96078.06;;;6.57;68.42
23677;BME280;31493;49.058;12.190;2023-04-26T08:54:35;96072.69;;;6.93;67.52
23677;BME280;31493;49.058;12.190;2023-04-26T08:57:03;96065.16;;;7.06;69.03
23677;BME280;31493;49.058;12.190;2023-04-26T08:59:31;96075.69;;;7.17;67.50
23677;BME280;31493;49.058;12.190;2023-04-26T09:01:59;96065.72;;;7.11;65.14
23677;BME280;31493;49.058;12.190;2023-04-26T09:04:28;96070.69;;;7.62;64.61
23677;BME280;31493;49.058;12.190;2023-04-26T09:06:59;96077.88;;;7.25;65.08
23677;BME280;31493;49.058;12.190;2023-04-26T09:09:27;96077.09;;;7.23;63.90
23677;BME280;31493;49.058;12.190;2023-04-26T09:11:54;96071.38;;;7.18;64.98
23677;BME280;31493;49.058;12.190;2023-04-26T09:14:22;96075.03;;;7.30;61.87
23677;BME280;31493;49.058;12.190;2023-04-26T09:16:50;96073.13;;;7.02;64.32
23677;BME280;31493;49.058;12.190;2023-04-26T09:19:35;96072.13;;;7.20;63.11
23677;BME280;31493;49.058;12.190;2023-04-26T09:22:03;96077.44;;;7.17;64.74
23677;BME280;31493;49.058;12.190;2023-04-26T09:24:45;96067.06;;;7.34;62.18
23677;BME280;31493;49.058;12.190;2023-04-26T09:27:13;96059.75;;;7.26;61.55
23677;BME280;31493;49.058;12.190;2023-04-26T09:29:56;96063.06;;;7.28;60.95
23677;BME280;31493;49.058;12.190;2023-04-26T09:32:24;96065.88;;;7.56;60.04
23677;BME280;31493;49.058;12.190;2023-04-26T09:34:53;96068.63;;;7.52;61.05
23677;BME280;31493;49.058;12.190;2023-04-26T09:37:20;96071.19;;;7.68;60.41
23677;BME280;31493;49.058;12.190;2023-04-26T09:39:47;96069.22;;;7.88;60.12
23677;BME280;31493;49.058;12.190;2023-04-26T09:42:16;96069.63;;;8.69;62.42
23677;BME280;31493;49.058;12.190;2023-04-26T09:44:43;96064.63;;;8.37;59.65
23677;BME280;31493;49.058;12.190;2023-04-26T09:47:10;96084.31;;;7.48;54.84
23677;BME280;31493;49.058;12.190;2023-04-26T09:49:45;96081.34;;;7.40;55.79
23677;BME280;31493;49.058;12.190;2023-04-26T09:52:15;96077.94;;;7.55;55.14
23677;BME280;31493;49.058;12.190;2023-04-26T09:54:43;96075.28;;;8.17;59.37
23677;BME280;31493;49.058;12.190;2023-04-26T09:57:10;96080.31;;;7.58;55.31
23677;BME280;31493;49.058;12.190;2023-04-26T09:59:39;96074.81;;;7.80;57.29
23677;BME280;31493;49.058;12.190;2023-04-26T10:02:09;96063.72;;;8.38;55.47
23677;BME280;31493;49.058;12.190;2023-04-26T10:04:40;96065.59;;;8.20;53.58
23677;BME280;31493;49.058;12.190;2023-04-26T10:07:08;96057.66;;;8.53;53.73
23677;BME280;31493;49.058;12.190;2023-04-26T10:09:37;96070.53;;;9.37;58.20
23677;BME280;31493;49.058;12.190;2023-04-26T10:12:05;96067.75;;;8.99;50.76
23677;BME280;31493;49.058;12.190;2023-04-26T10:14:33;96075.47;;;9.55;55.48
23677;BME280;31493;49.058;12.190;2023-04-26T10:17:02;96068.16;;;9.20;48.83
23677;BME280;31493;49.058;12.190;2023-04-26T10:19:30;96070.63;;;9.36;50.31
23677;BME280;31493;49.058;12.190;2023-04-26T10:22:03;96055.25;;;8.79;52.48
23677;BME280;31493;49.058;12.190;2023-04-26T10:24:31;96068.41;;;8.46;51.88
23677;BME280;31493;49.058;12.190;2023-04-26T10:27:01;96060.59;;;8.61;52.02
23677;BME280;31493;49.058;12.190;2023-04-26T10:30:06;96067.38;;;9.47;54.42
23677;BME280;31493;49.058;12.190;2023-04-26T10:36:10;96028.91;;;10.47;53.44
23677;BME280;31493;49.058;12.190;2023-04-26T10:38:39;96047.94;;;9.27;48.44
23677;BME280;31493;49.058;12.190;2023-04-26T10:41:28;96032.69;;;10.67;51.92
23677;BME280;31493;49.058;12.190;2023-04-26T10:43:59;96054.25;;;9.50;47.58
23677;BME280;31493;49.058;12.190;2023-04-26T10:46:35;96048.16;;;8.54;53.43
23677;BME280;31493;49.058;12.190;2023-04-26T10:49:15;96057.28;;;8.15;53.19
23677;BME280;31493;49.058;12.190;2023-04-26T10:52:08;96047.97;;;8.85;52.51
23677;BME280;31493;49.058;12.190;2023-04-26T10:54:45;96039.97;;;10.36;56.92
23677;BME280;31493;49.058;12.190;2023-04-26T10:57:13;96035.22;;;10.68;50.68
23677;BME280;31493;49.058;12.190;2023-04-26T11:02:52;96037.59;;;10.46;49.77
23677;BME280;31493;49.058;12.190;2023-04-26T11:05:33;96042.88;;;8.98;48.91
23677;BME280;31493;49.058;12.190;2023-04-26T11:08:05;96047.09;;;8.28;49.86
23677;BME280;31493;49.058;12.190;2023-04-26T11:10:36;96044.88;;;8.22;50.27
23677;BME280;31493;49.058;12.190;2023-04-26T11:13:03;96042.16;;;8.68;50.78
23677;BME280;31493;49.058;12.190;2023-04-26T11:15:31;96030.03;;;9.38;49.17
23677;BME280;31493;49.058;12.190;2023-04-26T11:18:02;96026.78;;;10.77;54.60
23677;BME280;31493;49.058;12.190;2023-04-26T11:20:30;96014.56;;;10.80;49.53
23677;BME280;31493;49.058;12.190;2023-04-26T11:22:57;96023.13;;;11.06;49.39
23677;BME280;31493;49.058;12.190;2023-04-26T11:25:25;96018.78;;;10.93;46.17
23677;BME280;31493;49.058;12.190;2023-04-26T11:27:58;96022.59;;;11.00;49.96
23677;BME280;31493;49.058;12.190;2023-04-26T11:30:27;96017.78;;;9.54;48.64
23677;BME280;31493;49.058;12.190;2023-04-26T11:32:54;96031.78;;;9.10;48.49
23677;BME280;31493;49.058;12.190;2023-04-26T11:35:22;96034.75;;;9.31;51.28
23677;BME280;31493;49.058;12.190;2023-04-26T11:37:51;96032.53;;;9.79;48.39
23677;BME280;31493;49.058;12.190;2023-04-26T11:40:18;96027.06;;;9.84;48.84
23677;BME280;31493;49.058;12.190;2023-04-26T11:42:45;96026.91;;;9.60;48.00
23677;BME280;31493;49.058;12.190;2023-04-26T11:45:14;96017.69;;;10.08;49.10
23677;BME280;31493;49.058;12.190;2023-04-26T11:47:41;96029.00;;;9.80;47.29
23677;BME280;31493;49.058;12.190;2023-04-26T11:50:10;96030.34;;;9.73;47.20
23677;BME280;31493;49.058;12.190;2023-04-26T11:52:39;96008.09;;;9.04;47.87
23677;BME280;31493;49.058;12.190;2023-04-26T11:55:06;96037.13;;;9.07;48.93
23677;BME280;31493;49.058;12.190;2023-04-26T11:57:35;96022.25;;;8.84;48.63
23677;BME280;31493;49.058;12.190;2023-04-26T12:00:12;96022.94;;;9.00;47.01
23677;BME280;31493;49.058;12.190;2023-04-26T12:02:43;96030.94;;;9.37;45.96
23677;BME280;31493;49.058;12.190;2023-04-26T12:05:19;96012.03;;;9.36;47.14
23677;BME280;31493;49.058;12.190;2023-04-26T12:07:50;96015.06;;;9.70;47.06
23677;BME280;31493;49.058;12.190;2023-04-26T12:10:19;96007.47;;;10.19;45.09
23677;BME280;31493;49.058;12.190;2023-04-26T12:12:48;96022.09;;;9.93;46.86
23677;BME280;31493;49.058;12.190;2023-04-26T12:15:16;96029.38;;;9.07;44.83
23677;BME280;31493;49.058;12.190;2023-04-26T12:17:57;96026.97;;;9.46;47.58
23677;BME280;31493;49.058;12.190;2023-04-26T12:20:29;96030.75;;;9.13;47.04
23677;BME280;31493;49.058;12.190;2023-04-26T12:23:09;96020.84;;;9.86;52.27
23677;BME280;31493;49.058;12.190;2023-04-26T12:25:37;96009.84;;;10.35;49.83
23677;BME280;31493;49.058;12.190;2023-04-26T12:28:05;96015.28;;;10.05;50.27
23677;BME280;31493;49.058;12.190;2023-04-26T12:30:37;96015.50;;;9.89;45.45
23677;BME280;31493;49.058;12.190;2023-04-26T12:33:04;96010.50;;;10.26;47.60
23677;BME280;31493;49.058;12.190;2023-04-26T12:35:32;96012.38;;;9.45;45.46
23677;BME280;31493;49.058;12.190;2023-04-26T12:38:01;96001.72;;;9.36;46.53
23677;BME280;31493;49.058;12.190;2023-04-26T12:40:28;96019.31;;;9.17;48.88
23677;BME280;31493;49.058;12.190;2023-04-26T12:42:56;96018.47;;;9.17;50.82
23677;BME280;31493;49.058;12.190;2023-04-26T12:45:24;96013.84;;;9.49;48.96
23677;BME280;31493;49.058;12.190;2023-04-26T12:47:52;96006.03;;;9.76;49.47
23677;BME280;31493;49.058;12.190;2023-04-26T12:50:19;96003.22;;;9.53;48.04
23677;BME280;31493;49.058;12.190;2023-04-26T12:52:46;96006.94;;;10.14;45.84
23677;BME280;31493;49.058;12.190;2023-04-26T12:55:15;96010.88;;;10.07;47.91
23677;BME280;31493;49.058;12.190;2023-04-26T12:57:43;96006.53;;;9.68;44.82
23677;BME280;31493;49.058;12.190;2023-04-26T13:00:12;96003.59;;;10.00;45.78
23677;BME280;31493;49.058;12.190;2023-04-26T13:02:39;96009.72;;;10.11;44.89
23677;BME280;31493;49.058;12.190;2023-04-26T13:05:07;95998.25;;;9.63;44.25
23677;BME280;31493;49.058;12.190;2023-04-26T13:07:36;95989.75;;;10.52;44.37
23677;BME280;31493;49.058;12.190;2023-04-26T13:10:05;95996.25;;;10.70;46.14